sensor_id;sensor_type;location;lat;lon;timestamp;pressure;altitude;pressure_sealevel;temperature;humidity
57572;BME280;44459;43.522;24.470;2023-01-28T00:01:36;99884.19;;;0.62;100.00
57572;BME280;44459;43.522;24.470;2023-01-28T00:04:01;99886.94;;;0.67;100.00
57572;BME280;44459;43.522;24.470;2023-01-28T00:06:27;99884.03;;;0.59;100.00
57572;BME280;44459;43.522;24.470;2023-01-28T00:08:52;99886.78;;;0.62;100.00
57572;BME280;44459;43.522;24.470;2023-01-28T00:11:20;99883.53;;;0.68;100.00
57572;BME280;44459;43.522;24.470;2023-01-28T00:13:50;99894.09;;;0.72;100.00
57572;BME280;44459;43.522;24.470;2023-01-28T00:16:17;99896.88;;;0.77;100.00
57572;BME280;44459;43.522;24.470;2023-01-28T00:18:42;99892.84;;;0.63;100.00
57572;BME280;44459;43.522;24.470;2023-01-28T00:21:13;99902.41;;;0.64;100.00
57572;BME280;44459;43.522;24.470;2023-01-28T00:23:40;99897.03;;;0.59;100.00
57572;BME280;44459;43.522;24.470;2023-01-28T00:26:10;99899.22;;;0.71;100.00
57572;BME280;44459;43.522;24.470;2023-01-28T00:28:36;99901.91;;;0.72;100.00
57572;BME280;44459;43.522;24.470;2023-01-28T00:31:26;99905.53;;;0.77;100.00
57572;BME280;44459;43.522;24.470;2023-01-28T00:33:53;99903.19;;;0.83;100.00
57572;BME280;44459;43.522;24.470;2023-01-28T00:36:20;99904.03;;;0.82;100.00
57572;BME280;44459;43.522;24.470;2023-01-28T00:38:53;99909.16;;;0.81;100.00
57572;BME280;44459;43.522;24.470;2023-01-28T00:41:20;99913.56;;;0.83;100.00
57572;BME280;44459;43.522;24.470;2023-01-28T00:43:47;99910.75;;;0.77;100.00
57572;BME280;44459;43.522;24.470;2023-01-28T00:46:13;99917.94;;;0.84;100.00
57572;BME280;44459;43.522;24.470;2023-01-28T00:48:40;99912.88;;;0.87;100.00
57572;BME280;44459;43.522;24.470;2023-01-28T00:51:07;99912.75;;;0.84;100.00
57572;BME280;44459;43.522;24.470;2023-01-28T00:53:33;99920.50;;;0.83;100.00
57572;BME280;44459;43.522;24.470;2023-01-28T00:56:02;99916.78;;;0.76;100.00
57572;BME280;44459;43.522;24.470;2023-01-28T00:58:27;99919.44;;;0.78;100.00
57572;BME280;44459;43.522;24.470;2023-01-28T01:00:53;99924.81;;;0.82;100.00
57572;BME280;44459;43.522;24.470;2023-01-28T01:03:19;99926.72;;;0.86;100.00
57572;BME280;44459;43.522;24.470;2023-01-28T01:05:44;99926.72;;;0.86;100.00
57572;BME280;44459;43.522;24.470;2023-01-28T01:08:10;99925.03;;;0.88;100.00
57572;BME280;44459;43.522;24.470;2023-01-28T01:10:37;99933.66;;;0.87;100.00
57572;BME280;44459;43.522;24.470;2023-01-28T01:13:04;99931.03;;;0.86;100.00
57572;BME280;44459;43.522;24.470;2023-01-28T01:15:30;99940.81;;;0.93;100.00
57572;BME280;44459;43.522;24.470;2023-01-28T01:17:56;99927.88;;;0.94;100.00
57572;BME280;44459;43.522;24.470;2023-01-28T01:20:26;99926.81;;;0.89;100.00
57572;BME280;44459;43.522;24.470;2023-01-28T01:22:52;99936.31;;;0.89;100.00
57572;BME280;44459;43.522;24.470;2023-01-28T01:25:18;99927.56;;;0.87;100.00
57572;BME280;44459;43.522;24.470;2023-01-28T01:27:44;99932.03;;;0.89;100.00
57572;BME280;44459;43.522;24.470;2023-01-28T01:30:12;99926.72;;;0.86;100.00
57572;BME280;44459;43.522;24.470;2023-01-28T01:32:37;99929.34;;;0.88;100.00
57572;BME280;44459;43.522;24.470;2023-01-28T01:35:04;99922.53;;;0.90;100.00
57572;BME280;44459;43.522;24.470;2023-01-28T01:37:31;99937.44;;;0.95;100.00
57572;BME280;44459;43.522;24.470;2023-01-28T01:39:57;99924.38;;;0.94;100.00
57572;BME280;44459;43.522;24.470;2023-01-28T01:42:23;99931.38;;;0.95;100.00
57572;BME280;44459;43.522;24.470;2023-01-28T01:52:59;99937.81;;;0.82;100.00
57572;BME280;44459;43.522;24.470;2023-01-28T01:55:30;99935.19;;;0.82;100.00
57572;BME280;44459;43.522;24.470;2023-01-28T01:58:00;99934.34;;;0.83;100.00
57572;BME280;44459;43.522;24.470;2023-01-28T02:00:26;99944.91;;;0.86;100.00
57572;BME280;44459;43.522;24.470;2023-01-28T02:02:52;99941.28;;;0.83;100.00
57572;BME280;44459;43.522;24.470;2023-01-28T02:05:20;99947.50;;;0.86;100.00
57572;BME280;44459;43.522;24.470;2023-01-28T02:07:47;99948.34;;;0.87;100.00
57572;BME280;44459;43.522;24.470;2023-01-28T02:10:13;99948.53;;;0.91;100.00
57572;BME280;44459;43.522;24.470;2023-01-28T02:12:42;99940.97;;;0.97;100.00
57572;BME280;44459;43.522;24.470;2023-01-28T02:15:12;99946.31;;;1.00;100.00
57572;BME280;44459;43.522;24.470;2023-01-28T02:17:39;99946.31;;;1.00;100.00
57572;BME280;44459;43.522;24.470;2023-01-28T02:20:10;99948.78;;;0.97;100.00
57572;BME280;44459;43.522;24.470;2023-01-28T02:23:03;99949.63;;;0.96;100.00
57572;BME280;44459;43.522;24.470;2023-01-28T02:28:48;99958.25;;;0.95;100.00
57572;BME280;44459;43.522;24.470;2023-01-28T02:31:25;99958.25;;;0.95;100.00
57572;BME280;44459;43.522;24.470;2023-01-28T02:36:42;99967.03;;;0.99;100.00
57572;BME280;44459;43.522;24.470;2023-01-28T02:39:17;99960.13;;;0.99;100.00
57572;BME280;44459;43.522;24.470;2023-01-28T02:41:50;99961.16;;;1.03;100.00
57572;BME280;44459;43.522;24.470;2023-01-28T02:44:17;99964.75;;;1.07;100.00
57572;BME280;44459;43.522;24.470;2023-01-28T02:46:43;99958.47;;;1.01;100.00
57572;BME280;44459;43.522;24.470;2023-01-28T02:49:27;99968.25;;;1.07;100.00
57572;BME280;44459;43.522;24.470;2023-01-28T02:52:18;99958.78;;;1.09;100.00
57572;BME280;44459;43.522;24.470;2023-01-28T03:03:27;99960.66;;;1.13;100.00
57572;BME280;44459;43.522;24.470;2023-01-28T03:06:08;99960.72;;;1.15;100.00
57572;BME280;44459;43.522;24.470;2023-01-28T03:08:58;99956.25;;;1.11;100.00
57572;BME280;44459;43.522;24.470;2023-01-28T03:11:45;99973.78;;;1.16;100.00
57572;BME280;44459;43.522;24.470;2023-01-28T03:14:31;99973.91;;;1.19;100.00
57572;BME280;44459;43.522;24.470;2023-01-28T03:21:05;99985.09;;;1.18;100.00
57572;BME280;44459;43.522;24.470;2023-01-28T03:24:01;99976.47;;;1.18;100.00
57572;BME280;44459;43.522;24.470;2023-01-28T03:27:09;99978.28;;;1.20;100.00
57572;BME280;44459;43.522;24.470;2023-01-28T03:29:58;99981.78;;;1.21;100.00
57572;BME280;44459;43.522;24.470;2023-01-28T03:32:44;99975.59;;;1.19;100.00
57572;BME280;44459;43.522;24.470;2023-01-28T03:35:31;99982.66;;;1.21;100.00
57572;BME280;44459;43.522;24.470;2023-01-28T03:38:18;99989.50;;;1.19;100.00
57572;BME280;44459;43.522;24.470;2023-01-28T03:41:01;99988.59;;;1.19;100.00
57572;BME280;44459;43.522;24.470;2023-01-28T03:43:30;99990.47;;;1.21;100.00
57572;BME280;44459;43.522;24.470;2023-01-28T03:45:56;99991.31;;;1.22;100.00
57572;BME280;44459;43.522;24.470;2023-01-28T03:48:24;99991.28;;;1.20;100.00
57572;BME280;44459;43.522;24.470;2023-01-28T03:50:50;99987.84;;;1.21;100.00
57572;BME280;44459;43.522;24.470;2023-01-28T03:53:18;99986.28;;;1.25;100.00
57572;BME280;44459;43.522;24.470;2023-01-28T03:55:44;99987.78;;;1.20;100.00
57572;BME280;44459;43.522;24.470;2023-01-28T03:58:13;99998.28;;;1.23;100.00
57572;BME280;44459;43.522;24.470;2023-01-28T04:00:39;99990.50;;;1.23;100.00
57572;BME280;44459;43.522;24.470;2023-01-28T04:03:18;100008.78;;;1.24;100.00
57572;BME280;44459;43.522;24.470;2023-01-28T04:06:05;100008.81;;;1.26;100.00
57572;BME280;44459;43.522;24.470;2023-01-28T04:08:31;100011.41;;;1.26;100.00
57572;BME280;44459;43.522;24.470;2023-01-28T04:10:57;100015.72;;;1.25;100.00
57572;BME280;44459;43.522;24.470;2023-01-28T04:13:22;100019.22;;;1.26;100.00
57572;BME280;44459;43.522;24.470;2023-01-28T04:15:48;100020.81;;;1.22;100.00
57572;BME280;44459;43.522;24.470;2023-01-28T04:18:13;100026.00;;;1.22;100.00
57572;BME280;44459;43.522;24.470;2023-01-28T04:20:39;100021.66;;;1.21;100.00
57572;BME280;44459;43.522;24.470;2023-01-28T04:23:05;100019.09;;;1.23;100.00
57572;BME280;44459;43.522;24.470;2023-01-28T04:25:32;100025.19;;;1.23;100.00
57572;BME280;44459;43.522;24.470;2023-01-28T04:27:57;100024.38;;;1.24;100.00
57572;BME280;44459;43.522;24.470;2023-01-28T04:30:23;100032.16;;;1.24;100.00
57572;BME280;44459;43.522;24.470;2023-01-28T04:32:49;100045.28;;;1.27;100.00
57572;BME280;44459;43.522;24.470;2023-01-28T04:35:17;100040.00;;;1.26;100.00
57572;BME280;44459;43.522;24.470;2023-01-28T04:37:43;100044.31;;;1.25;100.00
57572;BME280;44459;43.522;24.470;2023-01-28T04:40:11;100048.78;;;1.28;100.00
57572;BME280;44459;43.522;24.470;2023-01-28T04:42:36;100041.66;;;1.24;100.00
57572;BME280;44459;43.522;24.470;2023-01-28T04:45:02;100046.88;;;1.24;100.00
57572;BME280;44459;43.522;24.470;2023-01-28T04:47:28;100045.97;;;1.23;100.00
57572;BME280;44459;43.522;24.470;2023-01-28T04:49:53;100040.59;;;1.19;100.00
57572;BME280;44459;43.522;24.470;2023-01-28T04:52:19;100047.56;;;1.20;100.00
57572;BME280;44459;43.522;24.470;2023-01-28T04:54:44;100055.13;;;1.14;100.00
57572;BME280;44459;43.522;24.470;2023-01-28T04:57:10;100059.31;;;1.10;100.00
57572;BME280;44459;43.522;24.470;2023-01-28T04:59:36;100070.59;;;1.11;100.00
57572;BME280;44459;43.522;24.470;2023-01-28T05:02:01;100075.81;;;1.11;100.00
57572;BME280;44459;43.522;24.470;2023-01-28T05:04:26;100071.31;;;1.07;100.00
57572;BME280;44459;43.522;24.470;2023-01-28T05:06:52;100075.47;;;1.03;100.00
57572;BME280;44459;43.522;24.470;2023-01-28T05:09:17;100083.16;;;1.00;100.00
57572;BME280;44459;43.522;24.470;2023-01-28T05:11:43;100085.56;;;0.95;100.00
57572;BME280;44459;43.522;24.470;2023-01-28T05:14:08;100083.28;;;0.82;100.00
57572;BME280;44459;43.522;24.470;2023-01-28T05:16:34;100079.91;;;0.85;100.00
57572;BME280;44459;43.522;24.470;2023-01-28T05:19:00;100092.09;;;0.86;100.00
57572;BME280;44459;43.522;24.470;2023-01-28T05:21:26;100079.91;;;0.85;100.00
57572;BME280;44459;43.522;24.470;2023-01-28T05:23:51;100089.66;;;0.90;100.00
57572;BME280;44459;43.522;24.470;2023-01-28T05:26:17;100087.22;;;0.93;100.00
57572;BME280;44459;43.522;24.470;2023-01-28T05:28:42;100081.94;;;0.92;100.00
57572;BME280;44459;43.522;24.470;2023-01-28T05:31:09;100078.56;;;0.94;100.00
57572;BME280;44459;43.522;24.470;2023-01-28T05:33:35;100094.38;;;0.99;100.00
57572;BME280;44459;43.522;24.470;2023-01-28T05:36:00;100089.25;;;1.00;100.00
57572;BME280;44459;43.522;24.470;2023-01-28T05:38:26;100083.09;;;0.98;100.00
57572;BME280;44459;43.522;24.470;2023-01-28T05:40:51;100090.09;;;1.01;100.00
57572;BME280;44459;43.522;24.470;2023-01-28T05:43:16;100090.97;;;1.00;100.00
57572;BME280;44459;43.522;24.470;2023-01-28T05:45:42;100092.72;;;1.01;100.00
57572;BME280;44459;43.522;24.470;2023-01-28T05:48:07;100091.91;;;1.02;100.00
57572;BME280;44459;43.522;24.470;2023-01-28T05:50:33;100086.66;;;1.00;100.00
57572;BME280;44459;43.522;24.470;2023-01-28T05:52:58;100104.00;;;1.01;100.00
57572;BME280;44459;43.522;24.470;2023-01-28T05:55:23;100096.28;;;1.03;100.00
57572;BME280;44459;43.522;24.470;2023-01-28T05:57:49;100098.63;;;0.97;100.00
57572;BME280;44459;43.522;24.470;2023-01-28T06:00:15;100104.06;;;1.03;100.00
57572;BME280;44459;43.522;24.470;2023-01-28T06:02:42;100114.50;;;1.05;100.00
57572;BME280;44459;43.522;24.470;2023-01-28T06:05:08;100118.84;;;1.04;100.00
57572;BME280;44459;43.522;24.470;2023-01-28T06:07:34;100113.69;;;1.06;100.00
57572;BME280;44459;43.522;24.470;2023-01-28T06:09:59;100118.09;;;1.07;100.00
57572;BME280;44459;43.522;24.470;2023-01-28T06:12:25;100122.38;;;1.06;100.00
57572;BME280;44459;43.522;24.470;2023-01-28T06:14:51;100117.06;;;1.03;100.00
57572;BME280;44459;43.522;24.470;2023-01-28T06:17:16;100122.88;;;0.97;100.00
57572;BME280;44459;43.522;24.470;2023-01-28T06:19:42;100127.06;;;0.94;100.00
57572;BME280;44459;43.522;24.470;2023-01-28T06:22:08;100127.06;;;0.94;100.00
57572;BME280;44459;43.522;24.470;2023-01-28T06:24:34;100130.38;;;0.90;100.00
57572;BME280;44459;43.522;24.470;2023-01-28T06:26:59;100137.28;;;0.89;100.00
57572;BME280;44459;43.522;24.470;2023-01-28T06:29:25;100131.75;;;0.82;100.00
57572;BME280;44459;43.522;24.470;2023-01-28T06:31:50;100133.59;;;0.84;100.00
57572;BME280;44459;43.522;24.470;2023-01-28T06:34:16;100133.13;;;0.74;100.00
57572;BME280;44459;43.522;24.470;2023-01-28T06:36:41;100148.09;;;0.79;100.00
57572;BME280;44459;43.522;24.470;2023-01-28T06:39:07;100135.03;;;0.78;100.00
57572;BME280;44459;43.522;24.470;2023-01-28T06:41:32;100143.84;;;0.81;100.00
57572;BME280;44459;43.522;24.470;2023-01-28T06:43:57;100144.06;;;0.86;100.00
57572;BME280;44459;43.522;24.470;2023-01-28T06:46:23;100136.44;;;0.90;100.00
57572;BME280;44459;43.522;24.470;2023-01-28T06:48:54;100143.53;;;0.94;100.00
57572;BME280;44459;43.522;24.470;2023-01-28T06:51:20;100142.72;;;0.95;100.00
57572;BME280;44459;43.522;24.470;2023-01-28T06:53:45;100142.09;;;1.01;100.00
57572;BME280;44459;43.522;24.470;2023-01-28T06:56:11;100139.78;;;1.07;100.00
57572;BME280;44459;43.522;24.470;2023-01-28T06:58:36;100139.88;;;1.10;100.00
57572;BME280;44459;43.522;24.470;2023-01-28T07:01:02;100144.53;;;1.17;100.00
57572;BME280;44459;43.522;24.470;2023-01-28T07:03:28;100144.66;;;1.20;100.00
57572;BME280;44459;43.522;24.470;2023-01-28T07:05:53;100150.03;;;1.25;100.00
57572;BME280;44459;43.522;24.470;2023-01-28T07:08:19;100154.59;;;1.30;100.00
57572;BME280;44459;43.522;24.470;2023-01-28T07:10:44;100156.53;;;1.36;100.00
57572;BME280;44459;43.522;24.470;2023-01-28T07:13:10;100151.34;;;1.36;100.00
57572;BME280;44459;43.522;24.470;2023-01-28T07:15:35;100151.47;;;1.39;100.00
57572;BME280;44459;43.522;24.470;2023-01-28T07:18:01;100163.09;;;1.47;100.00
57572;BME280;44459;43.522;24.470;2023-01-28T07:20:26;100161.28;;;1.46;100.00
57572;BME280;44459;43.522;24.470;2023-01-28T07:22:52;100170.19;;;1.51;100.00
57572;BME280;44459;43.522;24.470;2023-01-28T07:25:17;100171.00;;;1.50;100.00
57572;BME280;44459;43.522;24.470;2023-01-28T07:27:50;100177.28;;;1.55;100.00
57572;BME280;44459;43.522;24.470;2023-01-28T07:30:18;100175.50;;;1.54;100.00
57572;BME280;44459;43.522;24.470;2023-01-28T07:32:44;100173.03;;;1.57;100.00
57572;BME280;44459;43.522;24.470;2023-01-28T07:35:10;100180.09;;;1.60;100.00
57572;BME280;44459;43.522;24.470;2023-01-28T07:37:36;100181.81;;;1.59;100.00
57572;BME280;44459;43.522;24.470;2023-01-28T07:40:02;100187.03;;;1.61;100.00
57572;BME280;44459;43.522;24.470;2023-01-28T07:42:28;100194.97;;;1.64;100.00
57572;BME280;44459;43.522;24.470;2023-01-28T07:44:53;100194.94;;;1.62;100.00
57572;BME280;44459;43.522;24.470;2023-01-28T07:47:19;100186.16;;;1.60;100.00
57572;BME280;44459;43.522;24.470;2023-01-28T07:49:44;100196.72;;;1.63;100.00
57572;BME280;44459;43.522;24.470;2023-01-28T07:52:09;100192.38;;;1.64;100.00
57572;BME280;44459;43.522;24.470;2023-01-28T07:54:35;100198.84;;;1.73;100.00
57572;BME280;44459;43.522;24.470;2023-01-28T07:57:01;100198.91;;;1.75;100.00
57572;BME280;44459;43.522;24.470;2023-01-28T07:59:26;100195.41;;;1.74;100.00
57572;BME280;44459;43.522;24.470;2023-01-28T08:01:52;100206.91;;;1.79;100.00
57572;BME280;44459;43.522;24.470;2023-01-28T08:04:20;100202.75;;;1.84;100.00
57572;BME280;44459;43.522;24.470;2023-01-28T08:06:46;100191.16;;;1.76;100.00
57572;BME280;44459;43.522;24.470;2023-01-28T08:09:11;100210.63;;;1.86;100.00
57572;BME280;44459;43.522;24.470;2023-01-28T08:11:37;100205.34;;;1.84;100.00
57572;BME280;44459;43.522;24.470;2023-01-28T08:14:04;100211.75;;;1.92;100.00
57572;BME280;44459;43.522;24.470;2023-01-28T08:16:29;100216.19;;;1.95;100.00
57572;BME280;44459;43.522;24.470;2023-01-28T08:18:55;100208.34;;;1.93;100.00
57572;BME280;44459;43.522;24.470;2023-01-28T08:21:21;100199.88;;;1.99;100.00
57572;BME280;44459;43.522;24.470;2023-01-28T08:23:46;100206.91;;;2.01;100.00
57572;BME280;44459;43.522;24.470;2023-01-28T08:26:12;100211.41;;;2.06;100.00
57572;BME280;44459;43.522;24.470;2023-01-28T08:28:37;100222.00;;;2.10;100.00
57572;BME280;44459;43.522;24.470;2023-01-28T08:31:03;100216.09;;;2.14;100.00
57572;BME280;44459;43.522;24.470;2023-01-28T08:33:28;100230.28;;;2.22;100.00
57572;BME280;44459;43.522;24.470;2023-01-28T08:35:54;100230.16;;;2.19;100.00
57572;BME280;44459;43.522;24.470;2023-01-28T08:38:19;100236.47;;;2.24;100.00
57572;BME280;44459;43.522;24.470;2023-01-28T08:40:48;100243.38;;;2.24;100.00
57572;BME280;44459;43.522;24.470;2023-01-28T08:43:14;100243.06;;;2.16;100.00
57572;BME280;44459;43.522;24.470;2023-01-28T08:45:40;100234.44;;;2.17;100.00
57572;BME280;44459;43.522;24.470;2023-01-28T08:48:09;100233.16;;;2.28;100.00
57572;BME280;44459;43.522;24.470;2023-01-28T08:50:38;100238.69;;;2.37;100.00
57572;BME280;44459;43.522;24.470;2023-01-28T08:53:12;100234.16;;;2.32;100.00
57572;BME280;44459;43.522;24.470;2023-01-28T08:55:38;100244.69;;;2.35;100.00
57572;BME280;44459;43.522;24.470;2023-01-28T08:58:05;100235.16;;;2.35;100.00
57572;BME280;44459;43.522;24.470;2023-01-28T09:00:32;100242.44;;;2.44;100.00
57572;BME280;44459;43.522;24.470;2023-01-28T09:02:58;100237.34;;;2.47;100.00
57572;BME280;44459;43.522;24.470;2023-01-28T09:05:23;100245.63;;;2.59;100.00
57572;BME280;44459;43.522;24.470;2023-01-28T09:07:49;100249.28;;;2.64;100.00
57572;BME280;44459;43.522;24.470;2023-01-28T09:10:15;100247.94;;;2.74;100.00
57572;BME280;44459;43.522;24.470;2023-01-28T09:12:41;100239.66;;;2.85;100.00
57572;BME280;44459;43.522;24.470;2023-01-28T09:15:08;100243.13;;;2.84;100.00
57572;BME280;44459;43.522;24.470;2023-01-28T09:17:34;100237.91;;;2.84;100.00
57572;BME280;44459;43.522;24.470;2023-01-28T09:19:59;100235.31;;;2.86;100.00
57572;BME280;44459;43.522;24.470;2023-01-28T09:22:25;100236.44;;;2.92;100.00
57572;BME280;44459;43.522;24.470;2023-01-28T09:24:50;100229.56;;;2.94;100.00
57572;BME280;44459;43.522;24.470;2023-01-28T09:27:15;100230.50;;;2.96;100.00
57572;BME280;44459;43.522;24.470;2023-01-28T09:29:41;100231.00;;;3.10;100.00
57572;BME280;44459;43.522;24.470;2023-01-28T09:32:07;100235.91;;;3.01;98.86
57572;BME280;44459;43.522;24.470;2023-01-28T09:34:33;100236.91;;;3.04;98.92
57572;BME280;44459;43.522;24.470;2023-01-28T09:36:58;100234.31;;;3.06;99.13
57572;BME280;44459;43.522;24.470;2023-01-28T09:39:24;100238.59;;;3.04;98.62
57572;BME280;44459;43.522;24.470;2023-01-28T09:45:09;100236.81;;;3.03;99.38
57572;BME280;44459;43.522;24.470;2023-01-28T09:47:25;100233.81;;;3.16;99.64
57572;BME280;44459;43.522;24.470;2023-01-28T09:49:53;100239.31;;;3.24;99.37
57572;BME280;44459;43.522;24.470;2023-01-28T09:52:22;100235.50;;;3.14;96.71
57572;BME280;44459;43.522;24.470;2023-01-28T09:54:55;100232.78;;;3.11;97.76
57572;BME280;44459;43.522;24.470;2023-01-28T09:57:25;100228.47;;;3.12;97.50
57572;BME280;44459;43.522;24.470;2023-01-28T09:59:56;100229.50;;;3.17;98.14
57572;BME280;44459;43.522;24.470;2023-01-28T10:10:57;100233.38;;;3.28;95.48
57572;BME280;44459;43.522;24.470;2023-01-28T10:13:47;100233.44;;;3.29;96.04
57572;BME280;44459;43.522;24.470;2023-01-28T10:19:10;100226.13;;;3.44;96.09
57572;BME280;44459;43.522;24.470;2023-01-28T10:21:44;100236.81;;;3.52;96.38
57572;BME280;44459;43.522;24.470;2023-01-28T10:24:23;100234.22;;;3.52;95.80
57572;BME280;44459;43.522;24.470;2023-01-28T10:26:51;100228.97;;;3.50;95.91
57572;BME280;44459;43.522;24.470;2023-01-28T10:29:19;100227.78;;;3.42;95.75
57572;BME280;44459;43.522;24.470;2023-01-28T10:32:01;100233.66;;;3.37;95.93
57572;BME280;44459;43.522;24.470;2023-01-28T10:34:29;100233.53;;;3.32;96.14
57572;BME280;44459;43.522;24.470;2023-01-28T10:36:56;100222.50;;;3.41;97.24
57572;BME280;44459;43.522;24.470;2023-01-28T10:39:23;100221.00;;;3.47;97.15
57572;BME280;44459;43.522;24.470;2023-01-28T10:41:49;100221.63;;;3.40;96.44
57572;BME280;44459;43.522;24.470;2023-01-28T10:44:31;100222.09;;;3.29;95.77
57572;BME280;44459;43.522;24.470;2023-01-28T10:47:01;100225.00;;;3.36;98.35
57572;BME280;44459;43.522;24.470;2023-01-28T10:49:29;100210.00;;;3.31;96.88
57572;BME280;44459;43.522;24.470;2023-01-28T10:51:55;100215.94;;;3.27;97.00
57572;BME280;44459;43.522;24.470;2023-01-28T10:54:26;100217.50;;;3.22;97.36
57572;BME280;44459;43.522;24.470;2023-01-28T10:57:03;100217.84;;;3.07;98.29
57572;BME280;44459;43.522;24.470;2023-01-28T10:59:34;100222.78;;;2.99;98.52
57572;BME280;44459;43.522;24.470;2023-01-28T11:02:17;100230.00;;;3.07;99.83
57572;BME280;44459;43.522;24.470;2023-01-28T11:04:44;100219.53;;;3.05;99.52
57572;BME280;44459;43.522;24.470;2023-01-28T11:07:20;100225.78;;;3.10;100.00
57572;BME280;44459;43.522;24.470;2023-01-28T11:09:48;100220.47;;;3.07;100.00
57572;BME280;44459;43.522;24.470;2023-01-28T11:12:22;100217.13;;;3.11;100.00
57572;BME280;44459;43.522;24.470;2023-01-28T11:15:01;100226.78;;;3.14;100.00
57572;BME280;44459;43.522;24.470;2023-01-28T11:17:32;100211.91;;;3.11;100.00
57572;BME280;44459;43.522;24.470;2023-01-28T11:20:07;100228.09;;;3.02;100.00
57572;BME280;44459;43.522;24.470;2023-01-28T11:22:42;100219.88;;;2.90;100.00
57572;BME280;44459;43.522;24.470;2023-01-28T11:27:51;100216.69;;;2.75;100.00
57572;BME280;44459;43.522;24.470;2023-01-28T11:30:34;100217.41;;;2.71;100.00
57572;BME280;44459;43.522;24.470;2023-01-28T11:33:19;100212.66;;;2.83;100.00
57572;BME280;44459;43.522;24.470;2023-01-28T11:35:57;100214.47;;;2.86;100.00
57572;BME280;44459;43.522;24.470;2023-01-28T11:38:27;100206.88;;;2.92;100.00
57572;BME280;44459;43.522;24.470;2023-01-28T11:40:55;100205.84;;;2.87;100.00
57572;BME280;44459;43.522;24.470;2023-01-28T11:43:23;100204.44;;;2.73;100.00
57572;BME280;44459;43.522;24.470;2023-01-28T11:46:14;100214.69;;;2.68;100.00
57572;BME280;44459;43.522;24.470;2023-01-28T11:54:40;100214.19;;;2.78;100.00
57572;BME280;44459;43.522;24.470;2023-01-28T12:31:32;100211.75;;;2.59;100.00
57572;BME280;44459;43.522;24.470;2023-01-28T12:37:06;100220.88;;;2.48;100.00
57572;BME280;44459;43.522;24.470;2023-01-28T12:42:25;100224.41;;;2.50;100.00
57572;BME280;44459;43.522;24.470;2023-01-28T12:45:22;100225.31;;;2.50;100.00
57572;BME280;44459;43.522;24.470;2023-01-28T12:48:11;100217.16;;;2.41;100.00
57572;BME280;44459;43.522;24.470;2023-01-28T12:51:15;100226.69;;;2.41;100.00
57572;BME280;44459;43.522;24.470;2023-01-28T12:53:56;100230.38;;;2.46;100.00
57572;BME280;44459;43.522;24.470;2023-01-28T12:56:29;100227.28;;;2.34;100.00
57572;BME280;44459;43.522;24.470;2023-01-28T12:59:06;100221.84;;;2.28;100.00
57572;BME280;44459;43.522;24.470;2023-01-28T13:01:43;100233.28;;;2.31;100.00
57572;BME280;44459;43.522;24.470;2023-01-28T13:06:54;100223.13;;;2.17;100.00
57572;BME280;44459;43.522;24.470;2023-01-28T13:09:24;100240.44;;;2.15;100.00
57572;BME280;44459;43.522;24.470;2023-01-28T13:11:52;100230.91;;;2.15;100.00
57572;BME280;44459;43.522;24.470;2023-01-28T13:14:28;100225.44;;;2.09;100.00
57572;BME280;44459;43.522;24.470;2023-01-28T13:16:55;100242.31;;;2.19;100.00
57572;BME280;44459;43.522;24.470;2023-01-28T13:19:24;100238.22;;;2.03;100.00
57572;BME280;44459;43.522;24.470;2023-01-28T13:22:12;100242.34;;;1.98;100.00
57572;BME280;44459;43.522;24.470;2023-01-28T13:24:49;100251.03;;;1.98;100.00
57572;BME280;44459;43.522;24.470;2023-01-28T13:27:24;100242.88;;;1.89;100.00
57572;BME280;44459;43.522;24.470;2023-01-28T13:30:21;100239.94;;;2.02;100.00
57572;BME280;44459;43.522;24.470;2023-01-28T13:32:54;100242.09;;;1.92;100.00
57572;BME280;44459;43.522;24.470;2023-01-28T13:35:36;100259.63;;;1.96;100.00
57572;BME280;44459;43.522;24.470;2023-01-28T13:38:07;100256.31;;;2.00;100.00
57572;BME280;44459;43.522;24.470;2023-01-28T13:40:34;100257.22;;;2.00;100.00
57572;BME280;44459;43.522;24.470;2023-01-28T13:43:22;100250.81;;;1.92;100.00
57572;BME280;44459;43.522;24.470;2023-01-28T13:46:01;100265.72;;;1.96;100.00
57572;BME280;44459;43.522;24.470;2023-01-28T13:51:18;100265.91;;;2.01;100.00
57572;BME280;44459;43.522;24.470;2023-01-28T13:53:50;100258.72;;;1.95;100.00
57572;BME280;44459;43.522;24.470;2023-01-28T13:56:21;100265.22;;;1.84;100.00
57572;BME280;44459;43.522;24.470;2023-01-28T13:59:22;100271.88;;;1.78;100.00
57572;BME280;44459;43.522;24.470;2023-01-28T14:02:13;100271.63;;;1.72;100.00
57572;BME280;44459;43.522;24.470;2023-01-28T14:07:46;100267.94;;;1.67;100.00
57572;BME280;44459;43.522;24.470;2023-01-28T14:13:19;100275.25;;;1.75;100.00
57572;BME280;44459;43.522;24.470;2023-01-28T14:18:36;100278.78;;;1.77;100.00
57572;BME280;44459;43.522;24.470;2023-01-28T14:21:10;100283.88;;;1.74;100.00
57572;BME280;44459;43.522;24.470;2023-01-28T14:23:38;100283.81;;;1.73;100.00
57572;BME280;44459;43.522;24.470;2023-01-28T14:26:40;100278.63;;;1.73;100.00
57572;BME280;44459;43.522;24.470;2023-01-28T14:31:51;100277.34;;;1.63;100.00
57572;BME280;44459;43.522;24.470;2023-01-28T14:36:50;100288.44;;;1.59;100.00
57572;BME280;44459;43.522;24.470;2023-01-28T14:39:24;100285.56;;;1.53;100.00
57572;BME280;44459;43.522;24.470;2023-01-28T14:41:52;100285.56;;;1.53;100.00
57572;BME280;44459;43.522;24.470;2023-01-28T14:44:37;100288.16;;;1.53;100.00
57572;BME280;44459;43.522;24.470;2023-01-28T14:47:56;100280.25;;;1.50;100.00